Ogden, Kansas
Current Conditions -  °F | °C
As of 8:52 AM on Friday 28 Nov 2014 (Local Time) from KMHK Reporting Station
Clear Clear  
Wind Chill: 35°   Ceiling: Unl
Heat Index: 40°   Visibility: 10mi
Dew Point: 28°   Wind: 7mph
Humidity: 63%   Direction: 200°SSW
Pressure: 29.93"   Gusts: NA
Location:  39.11°N, 96.71°W
Report Text: KMHK 281452Z 20006KT 10SM CLR 04/M02 A2993 RMK AO2 SLP144 T00441022 58009
Loading
Personal Weather Stations






























Interactive Weather Map New forecast layout! Learn more

10-Day Weather Forecast

Advertisements
Track Severe Weather on mobile